Time;durP1;ratioP1;P1;durP2;ratioP2;P2;SDS_P1;SDS_P2;PMS_P1;PMS_P2;Temp;Humidity;BMP_temperature;BMP_pressure;BME280_temperature;BME280_humidity;BME280_pressure;Samples;Min_cycle;Max_cycle;Signal;HPM_P1;HPM_P2
2021/09/12 00:02:15;;;;;;;0.88;0.88;;;;;;;;;;5067261;28;20028;-61
2021/09/12 00:04:41;;;;;;;1.20;1.00;;;;;;;;;;5066873;28;20025;-60
2021/09/12 00:07:07;;;;;;;1.20;1.00;;;;;;;;;;5066510;28;20040;-60
2021/09/12 00:09:33;;;;;;;1.63;0.90;;;;;;;;;;5067372;28;20413;-61
2021/09/12 00:11:59;;;;;;;0.80;0.80;;;;;;;;;;5067459;28;20039;-61
2021/09/12 00:14:25;;;;;;;1.05;0.80;;;;;;;;;;5067668;28;20191;-61
2021/09/12 00:16:52;;;;;;;1.30;1.00;;;;;;;;;;5066701;28;20082;-60
2021/09/12 00:19:18;;;;;;;1.50;1.10;;;;;;;;;;5060734;28;20503;-60
2021/09/12 00:21:44;;;;;;;1.80;1.25;;;;;;;;;;5029317;28;20020;-60
2021/09/12 00:24:10;;;;;;;1.40;0.95;;;;;;;;;;5053212;28;20028;-60
2021/09/12 00:26:36;;;;;;;1.35;1.20;;;;;;;;;;5070956;28;20029;-61
2021/09/12 00:29:02;;;;;;;1.52;1.27;;;;;;;;;;5055122;28;20028;-60
2021/09/12 00:31:29;;;;;;;1.42;1.00;;;;;;;;;;5051004;28;20055;-60
2021/09/12 00:33:54;;;;;;;1.75;1.30;;;;;;;;;;5049949;28;20059;-60
2021/09/12 00:36:20;;;;;;;1.45;1.20;;;;;;;;;;5051030;28;20429;-60
2021/09/12 00:38:46;;;;;;;1.42;1.00;;;;;;;;;;5066173;28;20077;-60
2021/09/12 00:41:12;;;;;;;1.90;0.98;;;;;;;;;;5070326;28;20020;-61
2021/09/12 00:43:38;;;;;;;2.55;1.33;;;;;;;;;;5069303;28;20499;-61
2021/09/12 00:46:08;;;;;;;1.17;1.08;;;;;;;;;;5069624;28;20405;-61
2021/09/12 00:48:34;;;;;;;1.20;1.10;;;;;;;;;;5059496;28;20021;-61
2021/09/12 00:51:00;;;;;;;1.15;1.00;;;;;;;;;;5049459;28;20036;-61
2021/09/12 00:53:28;;;;;;;1.38;1.20;;;;;;;;;;5050799;28;20395;-61
2021/09/12 00:55:55;;;;;;;0.82;0.82;;;;;;;;;;5050607;28;20434;-61
2021/09/12 00:58:21;;;;;;;1.08;0.98;;;;;;;;;;5060413;28;20102;-61
2021/09/12 01:00:47;;;;;;;1.60;1.10;;;;;;;;;;5070433;28;20479;-61
2021/09/12 01:03:13;;;;;;;2.50;1.20;;;;;;;;;;5064689;28;20056;-62
2021/09/12 01:05:39;;;;;;;1.45;1.17;;;;;;;;;;5062465;28;20098;-61
2021/09/12 01:08:06;;;;;;;1.27;1.08;;;;;;;;;;5069176;28;20078;-61
2021/09/12 01:10:32;;;;;;;1.30;1.20;;;;;;;;;;5069806;28;20037;-62
2021/09/12 01:12:58;;;;;;;1.08;0.95;;;;;;;;;;5070890;28;20506;-61
2021/09/12 01:15:24;;;;;;;1.52;1.23;;;;;;;;;;5068756;28;20044;-62
2021/09/12 01:17:50;;;;;;;0.80;0.80;;;;;;;;;;5069174;28;20491;-62
2021/09/12 01:20:16;;;;;;;1.05;1.05;;;;;;;;;;5070376;28;20347;-62
2021/09/12 01:22:44;;;;;;;1.48;1.20;;;;;;;;;;5070537;28;20074;-62
2021/09/12 01:25:11;;;;;;;1.35;1.25;;;;;;;;;;5069611;28;20039;-61
2021/09/12 01:27:37;;;;;;;1.63;1.40;;;;;;;;;;5070496;28;20020;-61
2021/09/12 01:30:04;;;;;;;1.50;1.23;;;;;;;;;;5070175;28;20036;-61
2021/09/12 01:32:30;;;;;;;1.38;1.10;;;;;;;;;;5070378;28;20028;-61
2021/09/12 01:34:56;;;;;;;1.63;1.40;;;;;;;;;;5069220;28;20466;-61
2021/09/12 01:37:22;;;;;;;1.40;1.30;;;;;;;;;;5069754;28;20067;-61
2021/09/12 01:39:48;;;;;;;1.52;1.42;;;;;;;;;;5070279;28;20096;-61
2021/09/12 01:42:14;;;;;;;1.95;1.30;;;;;;;;;;5069905;28;20108;-62
2021/09/12 01:44:46;;;;;;;1.42;1.33;;;;;;;;;;5070606;28;20070;-62
2021/09/12 01:47:12;;;;;;;2.60;1.35;;;;;;;;;;5068769;28;20032;-62
2021/09/12 01:49:38;;;;;;;1.40;1.30;;;;;;;;;;5069745;28;20086;-62
2021/09/12 01:52:05;;;;;;;1.38;1.20;;;;;;;;;;5069980;28;20024;-62
2021/09/12 01:54:31;;;;;;;1.50;1.30;;;;;;;;;;5068936;28;20040;-62
2021/09/12 01:56:57;;;;;;;2.08;1.48;;;;;;;;;;5070242;28;20438;-62
2021/09/12 01:59:23;;;;;;;1.58;1.30;;;;;;;;;;5069785;28;20064;-62
2021/09/12 02:01:49;;;;;;;1.85;1.45;;;;;;;;;;5069584;28;20104;-61
2021/09/12 02:04:15;;;;;;;1.58;1.48;;;;;;;;;;5068929;28;20052;-62
2021/09/12 02:06:41;;;;;;;2.05;1.30;;;;;;;;;;5069886;28;20043;-62
2021/09/12 02:09:07;;;;;;;1.50;1.40;;;;;;;;;;5069877;28;20028;-62
2021/09/12 02:11:33;;;;;;;2.97;1.50;;;;;;;;;;5069768;28;20024;-61
2021/09/12 02:13:59;;;;;;;2.17;1.52;;;;;;;;;;5068408;28;20032;-61
2021/09/12 02:16:25;;;;;;;1.50;1.17;;;;;;;;;;5069653;28;20410;-62
2021/09/12 02:18:51;;;;;;;1.27;1.17;;;;;;;;;;5069743;28;20491;-62
2021/09/12 02:21:17;;;;;;;1.50;1.40;;;;;;;;;;5069146;28;20021;-62
2021/09/12 02:23:43;;;;;;;1.40;1.15;;;;;;;;;;5068617;28;20075;-62
2021/09/12 02:26:09;;;;;;;1.40;1.30;;;;;;;;;;5069181;28;20490;-62
2021/09/12 02:28:35;;;;;;;1.40;1.13;;;;;;;;;;5068769;28;20032;-62
2021/09/12 02:31:01;;;;;;;1.60;1.33;;;;;;;;;;5069522;28;20029;-61
2021/09/12 02:33:27;;;;;;;1.38;1.27;;;;;;;;;;5067306;28;20120;-61
2021/09/12 02:35:53;;;;;;;1.60;1.50;;;;;;;;;;5068964;28;20024;-61
2021/09/12 02:38:19;;;;;;;1.48;1.38;;;;;;;;;;5068810;28;20605;-61
2021/09/12 02:40:45;;;;;;;0.95;0.95;;;;;;;;;;5069546;28;20383;-61
2021/09/12 02:43:11;;;;;;;2.35;1.52;;;;;;;;;;5066998;28;20021;-61
2021/09/12 02:45:38;;;;;;;1.42;1.20;;;;;;;;;;5068115;28;20031;-61
2021/09/12 02:48:04;;;;;;;1.40;1.30;;;;;;;;;;5068322;28;20029;-61
2021/09/12 02:50:30;;;;;;;1.30;1.20;;;;;;;;;;5068407;28;20028;-62
2021/09/12 02:52:56;;;;;;;1.27;1.17;;;;;;;;;;5069222;28;20056;-62
2021/09/12 02:55:22;;;;;;;1.30;1.20;;;;;;;;;;5067844;28;20028;-62
2021/09/12 02:57:48;;;;;;;1.60;1.50;;;;;;;;;;5068734;28;20515;-62
2021/09/12 03:00:14;;;;;;;1.55;1.38;;;;;;;;;;5067882;28;20107;-62
2021/09/12 03:02:40;;;;;;;1.55;1.45;;;;;;;;;;5067660;28;20073;-62
2021/09/12 03:05:07;;;;;;;1.98;1.48;;;;;;;;;;5067546;28;20029;-61
2021/09/12 03:07:33;;;;;;;1.45;1.35;;;;;;;;;;5068762;28;20033;-62
2021/09/12 03:09:59;;;;;;;1.80;1.60;;;;;;;;;;5069099;28;20103;-61
2021/09/12 03:12:25;;;;;;;1.85;1.50;;;;;;;;;;5067366;28;20471;-62
2021/09/12 03:14:51;;;;;;;2.10;1.60;;;;;;;;;;5067763;28;20024;-61
2021/09/12 03:17:17;;;;;;;1.60;1.20;;;;;;;;;;5068211;28;20407;-62
2021/09/12 03:19:43;;;;;;;1.42;1.33;;;;;;;;;;5068423;28;20021;-62
2021/09/12 03:22:09;;;;;;;1.65;1.45;;;;;;;;;;5068332;28;20096;-62
2021/09/12 03:24:35;;;;;;;1.40;1.20;;;;;;;;;;5067825;28;20017;-62
2021/09/12 03:27:02;;;;;;;1.20;1.10;;;;;;;;;;5068119;28;20232;-62
2021/09/12 03:29:28;;;;;;;1.30;1.20;;;;;;;;;;5068837;28;20021;-61
2021/09/12 03:31:53;;;;;;;1.55;1.40;;;;;;;;;;5068504;28;20038;-61
2021/09/12 03:34:19;;;;;;;1.10;1.00;;;;;;;;;;5067078;28;20482;-62
2021/09/12 03:36:45;;;;;;;1.63;1.42;;;;;;;;;;5067530;28;20035;-61
2021/09/12 03:39:12;;;;;;;1.40;1.30;;;;;;;;;;5066953;28;20027;-61
2021/09/12 03:41:38;;;;;;;1.42;1.33;;;;;;;;;;5068404;28;20095;-61
2021/09/12 03:44:04;;;;;;;2.03;1.40;;;;;;;;;;5067023;28;20403;-61
2021/09/12 03:46:30;;;;;;;3.17;1.20;;;;;;;;;;5068385;28;20052;-61
2021/09/12 03:48:56;;;;;;;1.65;1.45;;;;;;;;;;5068457;28;20036;-61
2021/09/12 03:51:22;;;;;;;1.30;1.20;;;;;;;;;;5067846;28;20054;-62
2021/09/12 03:53:48;;;;;;;1.55;1.42;;;;;;;;;;5067224;28;20115;-62
2021/09/12 03:56:14;;;;;;;1.50;1.40;;;;;;;;;;5067911;28;20106;-62
2021/09/12 03:58:40;;;;;;;2.30;1.40;;;;;;;;;;5068613;28;20119;-62
2021/09/12 04:01:06;;;;;;;1.73;1.50;;;;;;;;;;5072133;28;20036;-61
2021/09/12 04:03:32;;;;;;;3.28;1.33;;;;;;;;;;5071402;28;20115;-61
2021/09/12 04:05:58;;;;;;;2.58;1.27;;;;;;;;;;5072261;28;20494;-61
2021/09/12 04:08:24;;;;;;;1.77;1.38;;;;;;;;;;5071211;28;20039;-61
2021/09/12 04:10:50;;;;;;;1.27;1.17;;;;;;;;;;5071915;28;20426;-61
2021/09/12 04:13:16;;;;;;;1.92;1.60;;;;;;;;;;5071074;28;20036;-61
2021/09/12 04:15:42;;;;;;;1.10;1.00;;;;;;;;;;5072108;28;20102;-61
2021/09/12 04:18:08;;;;;;;1.80;1.33;;;;;;;;;;5071506;28;20116;-61
2021/09/12 04:20:34;;;;;;;1.40;1.30;;;;;;;;;;5071953;28;20052;-62
2021/09/12 04:23:00;;;;;;;1.90;1.45;;;;;;;;;;5070887;28;20021;-62
2021/09/12 04:25:26;;;;;;;1.50;1.40;;;;;;;;;;5072060;28;20023;-61
2021/09/12 04:27:52;;;;;;;1.48;1.30;;;;;;;;;;5071626;28;20029;-61
2021/09/12 04:30:18;;;;;;;1.70;1.60;;;;;;;;;;5071067;28;20510;-61
2021/09/12 04:32:44;;;;;;;1.98;1.40;;;;;;;;;;5071069;28;20090;-61
2021/09/12 04:35:10;;;;;;;1.40;1.20;;;;;;;;;;5066549;28;20032;-61
2021/09/12 04:37:36;;;;;;;2.67;1.40;;;;;;;;;;5070062;28;20060;-62
2021/09/12 04:40:03;;;;;;;1.50;1.40;;;;;;;;;;5054349;28;20079;-61
2021/09/12 04:42:29;;;;;;;1.65;1.55;;;;;;;;;;5613978;22;20044;-54
2021/09/12 04:44:55;;;;;;;5.43;1.77;;;;;;;;;;5084181;28;20051;-55
2021/09/12 04:47:21;;;;;;;1.60;1.30;;;;;;;;;;5069807;28;20036;-55
2021/09/12 04:49:47;;;;;;;1.95;1.60;;;;;;;;;;5069558;28;20083;-55
2021/09/12 04:52:13;;;;;;;1.60;1.40;;;;;;;;;;5070518;28;20421;-55
2021/09/12 04:54:39;;;;;;;1.45;1.35;;;;;;;;;;5069780;28;20036;-55
2021/09/12 04:57:05;;;;;;;1.90;1.48;;;;;;;;;;5070269;28;20032;-55
2021/09/12 04:59:33;;;;;;;1.45;1.35;;;;;;;;;;5070419;28;20052;-55
2021/09/12 05:01:59;;;;;;;1.30;1.20;;;;;;;;;;5070375;28;20021;-54
2021/09/12 05:04:25;;;;;;;1.88;1.48;;;;;;;;;;5070082;28;20499;-55
2021/09/12 05:06:51;;;;;;;1.63;1.23;;;;;;;;;;5070377;28;20050;-55
2021/09/12 05:09:17;;;;;;;1.83;1.48;;;;;;;;;;5069622;28;20115;-54
2021/09/12 05:11:43;;;;;;;2.20;1.80;;;;;;;;;;5070241;28;20094;-55
2021/09/12 05:14:09;;;;;;;1.45;1.35;;;;;;;;;;5065402;28;20024;-57
2021/09/12 05:16:35;;;;;;;3.67;1.70;;;;;;;;;;5070257;28;20025;-57
2021/09/12 05:19:01;;;;;;;1.52;1.23;;;;;;;;;;5069572;28;20029;-56
2021/09/12 05:21:27;;;;;;;1.40;1.30;;;;;;;;;;5069516;28;20032;-55
2021/09/12 05:23:53;;;;;;;1.30;1.20;;;;;;;;;;5068156;28;20123;-56
2021/09/12 05:26:19;;;;;;;1.52;1.20;;;;;;;;;;5069981;28;21398;-56
2021/09/12 05:28:45;;;;;;;1.45;1.35;;;;;;;;;;5069820;28;20123;-57
2021/09/12 05:31:11;;;;;;;1.33;1.23;;;;;;;;;;5069721;28;20036;-55
2021/09/12 05:33:37;;;;;;;1.70;1.30;;;;;;;;;;5069242;28;20518;-56
2021/09/12 05:36:03;;;;;;;1.73;1.63;;;;;;;;;;5069702;28;20473;-57
2021/09/12 05:38:29;;;;;;;2.00;1.60;;;;;;;;;;5070096;28;20109;-56
2021/09/12 05:40:55;;;;;;;1.50;1.40;;;;;;;;;;5070387;28;20047;-56
2021/09/12 05:43:21;;;;;;;2.67;1.85;;;;;;;;;;5068835;28;20545;-57
2021/09/12 05:45:47;;;;;;;2.08;1.60;;;;;;;;;;5068283;28;20112;-56
2021/09/12 05:48:13;;;;;;;1.65;1.55;;;;;;;;;;5069442;28;20035;-57
2021/09/12 05:50:39;;;;;;;1.70;1.50;;;;;;;;;;5051421;28;20037;-57
2021/09/12 05:53:06;;;;;;;1.77;1.40;;;;;;;;;;5048992;28;20068;-57
2021/09/12 05:55:32;;;;;;;1.63;1.42;;;;;;;;;;5067759;28;20020;-57
2021/09/12 05:57:59;;;;;;;2.90;1.58;;;;;;;;;;5067196;28;20047;-57
2021/09/12 06:00:25;;;;;;;1.40;1.30;;;;;;;;;;5058146;28;20103;-57
2021/09/12 06:02:51;;;;;;;2.20;1.50;;;;;;;;;;5069238;28;20033;-57
2021/09/12 06:05:17;;;;;;;1.85;1.50;;;;;;;;;;5068222;28;20012;-57
2021/09/12 06:07:43;;;;;;;1.52;1.20;;;;;;;;;;5069267;28;20044;-57
2021/09/12 06:10:09;;;;;;;1.40;1.30;;;;;;;;;;5065324;28;20479;-57
2021/09/12 06:12:35;;;;;;;1.35;1.20;;;;;;;;;;5069170;28;20037;-56
2021/09/12 06:15:01;;;;;;;2.30;1.50;;;;;;;;;;5066546;28;20107;-56
2021/09/12 06:17:27;;;;;;;1.20;1.10;;;;;;;;;;5067597;28;20124;-56
2021/09/12 06:19:53;;;;;;;1.25;1.15;;;;;;;;;;5064901;28;20020;-56
2021/09/12 06:22:19;;;;;;;1.30;1.20;;;;;;;;;;5059356;28;20067;-56
2021/09/12 06:24:46;;;;;;;2.53;1.45;;;;;;;;;;5061111;28;20056;-56
2021/09/12 06:27:12;;;;;;;2.00;1.52;;;;;;;;;;5060132;28;20091;-56
2021/09/12 06:29:39;;;;;;;1.38;1.27;;;;;;;;;;5053806;28;20025;-57
2021/09/12 06:32:05;;;;;;;2.40;1.55;;;;;;;;;;5064221;28;20062;-56
2021/09/12 06:34:31;;;;;;;1.75;1.45;;;;;;;;;;5062190;28;20025;-57
2021/09/12 06:36:58;;;;;;;1.60;1.50;;;;;;;;;;5060471;28;20064;-55
2021/09/12 06:39:24;;;;;;;1.70;1.50;;;;;;;;;;5059322;28;20110;-56
2021/09/12 06:41:50;;;;;;;1.27;1.17;;;;;;;;;;5066881;28;20036;-57
2021/09/12 06:44:17;;;;;;;1.88;1.50;;;;;;;;;;5066628;28;20099;-56
2021/09/12 06:46:43;;;;;;;2.00;1.55;;;;;;;;;;5067522;28;20411;-57
2021/09/12 06:49:10;;;;;;;1.50;1.30;;;;;;;;;;5064454;28;20037;-56
2021/09/12 06:51:36;;;;;;;1.67;1.58;;;;;;;;;;5066995;28;20028;-56
2021/09/12 06:54:02;;;;;;;1.70;1.50;;;;;;;;;;5066652;28;20035;-56
2021/09/12 06:56:28;;;;;;;1.92;1.73;;;;;;;;;;5067458;28;20383;-57
2021/09/12 06:58:54;;;;;;;1.30;1.20;;;;;;;;;;5066011;28;20467;-56
2021/09/12 07:01:20;;;;;;;1.60;1.40;;;;;;;;;;5066039;28;21079;-57
2021/09/12 07:03:46;;;;;;;1.55;1.30;;;;;;;;;;5065807;28;20477;-56
2021/09/12 07:06:12;;;;;;;1.75;1.55;;;;;;;;;;5066972;28;20467;-56
2021/09/12 07:08:38;;;;;;;1.25;1.20;;;;;;;;;;5068090;28;20590;-56
2021/09/12 07:11:04;;;;;;;1.50;1.40;;;;;;;;;;5067131;28;20142;-57
2021/09/12 07:13:30;;;;;;;1.63;1.30;;;;;;;;;;5066166;28;20517;-57
2021/09/12 07:15:56;;;;;;;2.53;1.40;;;;;;;;;;5061530;28;20040;-57
2021/09/12 07:18:22;;;;;;;1.23;1.10;;;;;;;;;;5062130;28;20059;-57
2021/09/12 07:20:49;;;;;;;1.40;1.30;;;;;;;;;;5066531;28;20033;-57
2021/09/12 07:23:15;;;;;;;1.50;1.35;;;;;;;;;;5066870;28;20086;-57
2021/09/12 07:25:41;;;;;;;1.40;1.13;;;;;;;;;;5066830;28;20025;-57
2021/09/12 07:28:07;;;;;;;1.02;1.02;;;;;;;;;;5067227;28;20087;-57
2021/09/12 07:30:34;;;;;;;1.30;1.05;;;;;;;;;;5064214;28;20039;-56
2021/09/12 07:33:00;;;;;;;1.20;1.10;;;;;;;;;;5064357;28;20911;-57
2021/09/12 07:35:26;;;;;;;0.90;0.90;;;;;;;;;;5057317;28;20499;-57
2021/09/12 07:37:52;;;;;;;1.23;1.13;;;;;;;;;;5063005;28;20455;-56
2021/09/12 07:40:18;;;;;;;1.27;1.13;;;;;;;;;;5066627;28;20098;-57
2021/09/12 07:42:46;;;;;;;1.00;0.95;;;;;;;;;;5066890;28;20473;-56
2021/09/12 07:45:13;;;;;;;1.25;1.10;;;;;;;;;;5063084;28;20017;-56
2021/09/12 07:47:39;;;;;;;1.15;1.05;;;;;;;;;;5055584;28;20036;-56
2021/09/12 07:50:06;;;;;;;1.30;1.20;;;;;;;;;;5067110;28;20029;-56
2021/09/12 07:52:32;;;;;;;1.58;1.15;;;;;;;;;;5067030;28;20123;-56
2021/09/12 07:54:58;;;;;;;1.10;1.00;;;;;;;;;;5067078;28;20029;-55
2021/09/12 07:57:24;;;;;;;1.13;1.00;;;;;;;;;;5066209;28;20541;-55
2021/09/12 07:59:50;;;;;;;1.10;1.00;;;;;;;;;;5065820;28;20032;-55
2021/09/12 08:02:16;;;;;;;1.20;1.10;;;;;;;;;;5066412;28;20824;-55
2021/09/12 08:04:42;;;;;;;1.42;1.27;;;;;;;;;;5066678;28;20455;-54
2021/09/12 08:07:08;;;;;;;1.33;1.23;;;;;;;;;;5066180;28;20494;-56
2021/09/12 08:09:35;;;;;;;1.30;1.20;;;;;;;;;;5066665;28;20024;-56
2021/09/12 08:12:01;;;;;;;1.27;1.10;;;;;;;;;;5066486;28;20040;-56
2021/09/12 08:14:27;;;;;;;1.25;1.15;;;;;;;;;;5052326;28;20104;-55
2021/09/12 08:16:54;;;;;;;1.20;1.10;;;;;;;;;;5059083;28;20032;-56
2021/09/12 08:19:20;;;;;;;1.13;1.00;;;;;;;;;;5065741;28;20813;-56
2021/09/12 08:21:46;;;;;;;1.15;1.00;;;;;;;;;;5066677;28;20479;-56
2021/09/12 08:24:12;;;;;;;0.70;0.70;;;;;;;;;;5064353;28;20555;-56
2021/09/12 08:26:38;;;;;;;1.08;0.98;;;;;;;;;;5065549;28;20031;-56
2021/09/12 08:29:04;;;;;;;1.30;1.10;;;;;;;;;;5063671;28;20078;-56
2021/09/12 08:31:30;;;;;;;1.80;1.30;;;;;;;;;;5067515;28;20028;-54
2021/09/12 08:33:57;;;;;;;1.20;1.10;;;;;;;;;;5064469;28;20573;-55
2021/09/12 08:36:23;;;;;;;1.70;0.93;;;;;;;;;;5062093;28;20032;-56
2021/09/12 08:38:49;;;;;;;1.13;0.90;;;;;;;;;;5058757;28;20079;-55
2021/09/12 08:41:15;;;;;;;1.30;1.20;;;;;;;;;;5064119;28;20473;-55
2021/09/12 08:43:41;;;;;;;1.17;1.08;;;;;;;;;;5065887;28;20491;-56
2021/09/12 08:46:08;;;;;;;0.88;0.88;;;;;;;;;;5072962;28;20028;-55
2021/09/12 08:48:36;;;;;;;1.00;0.90;;;;;;;;;;5090365;28;20069;-57
2021/09/12 08:51:02;;;;;;;1.00;0.90;;;;;;;;;;5088996;28;20031;-57
2021/09/12 08:53:28;;;;;;;1.13;0.95;;;;;;;;;;5090480;28;20028;-56
2021/09/12 08:55:55;;;;;;;1.00;1.00;;;;;;;;;;5080125;28;20068;-57
2021/09/12 08:58:21;;;;;;;1.23;1.13;;;;;;;;;;5062267;28;20086;-56
2021/09/12 09:00:47;;;;;;;1.50;1.20;;;;;;;;;;5070068;28;20104;-56
2021/09/12 09:03:13;;;;;;;0.90;0.88;;;;;;;;;;5066383;28;20021;-56
2021/09/12 09:05:42;;;;;;;1.27;1.17;;;;;;;;;;5067875;28;20577;-56
2021/09/12 09:08:09;;;;;;;0.93;0.93;;;;;;;;;;5068162;28;20414;-56
2021/09/12 09:10:41;;;;;;;1.15;1.05;;;;;;;;;;5068653;28;20093;-57
2021/09/12 09:13:30;;;;;;;1.52;1.05;;;;;;;;;;5067434;28;20067;-56
2021/09/12 09:15:57;;;;;;;0.95;0.88;;;;;;;;;;5056818;28;20523;-56
2021/09/12 09:18:49;;;;;;;0.88;0.80;;;;;;;;;;5048122;28;20517;-55
2021/09/12 09:21:26;;;;;;;1.02;0.95;;;;;;;;;;5046006;28;20037;-56
2021/09/12 09:24:08;;;;;;;0.80;0.80;;;;;;;;;;5064982;28;20119;-56
2021/09/12 09:26:41;;;;;;;1.20;1.10;;;;;;;;;;5067701;28;20446;-55
2021/09/12 09:29:08;;;;;;;1.20;1.10;;;;;;;;;;5067520;28;20090;-54
2021/09/12 09:31:34;;;;;;;1.17;1.08;;;;;;;;;;5066852;28;20103;-54
2021/09/12 09:34:12;;;;;;;1.38;1.10;;;;;;;;;;5066697;28;20036;-56
2021/09/12 09:36:39;;;;;;;1.00;0.90;;;;;;;;;;5054273;28;20043;-55
2021/09/12 09:39:05;;;;;;;0.93;0.88;;;;;;;;;;5046898;28;20503;-54
2021/09/12 09:41:35;;;;;;;0.70;0.70;;;;;;;;;;5045808;28;20029;-55
2021/09/12 09:44:06;;;;;;;0.60;0.60;;;;;;;;;;5051599;28;20245;-55
2021/09/12 09:46:35;;;;;;;0.65;0.65;;;;;;;;;;5066901;28;20104;-55
2021/09/12 09:49:19;;;;;;;0.70;0.70;;;;;;;;;;5061295;28;20020;-54
2021/09/12 09:51:50;;;;;;;0.80;0.80;;;;;;;;;;5066617;28;20036;-55
2021/09/12 09:54:17;;;;;;;0.70;0.70;;;;;;;;;;5064375;28;20025;-53
2021/09/12 09:56:47;;;;;;;0.80;0.80;;;;;;;;;;5048862;28;20028;-54
2021/09/12 09:59:17;;;;;;;0.90;0.90;;;;;;;;;;5057296;28;20033;-55
2021/09/12 10:01:51;;;;;;;0.55;0.55;;;;;;;;;;5054943;28;20124;-55
2021/09/12 10:04:20;;;;;;;0.60;0.60;;;;;;;;;;5048373;28;20021;-55
2021/09/12 10:06:47;;;;;;;0.70;0.70;;;;;;;;;;5059986;28;20107;-53
2021/09/12 10:09:15;;;;;;;1.00;0.73;;;;;;;;;;5058936;28;20108;-54
2021/09/12 10:11:49;;;;;;;0.80;0.75;;;;;;;;;;5066359;28;20032;-53
2021/09/12 10:14:18;;;;;;;0.60;0.60;;;;;;;;;;5064098;28;20055;-55
2021/09/12 10:16:47;;;;;;;0.70;0.70;;;;;;;;;;5059456;28;20028;-54
2021/09/12 10:19:13;;;;;;;0.80;0.80;;;;;;;;;;5061477;28;20029;-54
2021/09/12 10:21:39;;;;;;;0.80;0.80;;;;;;;;;;5066647;28;20145;-54
2021/09/12 10:24:07;;;;;;;0.63;0.63;;;;;;;;;;5063383;28;20032;-55
2021/09/12 10:26:34;;;;;;;0.63;0.63;;;;;;;;;;5061876;28;20028;-55
2021/09/12 10:29:00;;;;;;;1.05;0.95;;;;;;;;;;5066949;28;20040;-54
2021/09/12 10:31:26;;;;;;;1.05;1.00;;;;;;;;;;5065859;28;20025;-53
2021/09/12 10:34:12;;;;;;;0.85;0.70;;;;;;;;;;5064695;28;20440;-55
2021/09/12 10:36:40;;;;;;;3.22;1.85;;;;;;;;;;5062053;28;20044;-54
2021/09/12 10:39:27;;;;;;;5.25;2.20;;;;;;;;;;5065452;28;20032;-55
2021/09/12 10:42:11;;;;;;;5.80;2.83;;;;;;;;;;5052021;28;20713;-54
2021/09/12 10:44:38;;;;;;;3.70;2.17;;;;;;;;;;5067279;28;20379;-55
2021/09/12 10:47:08;;;;;;;3.45;2.10;;;;;;;;;;5067699;28;20122;-54
2021/09/12 10:49:34;;;;;;;2.25;1.73;;;;;;;;;;5066619;28;20446;-54
2021/09/12 10:52:00;;;;;;;2.72;1.75;;;;;;;;;;5065387;28;20029;-55
2021/09/12 10:54:26;;;;;;;1.88;1.30;;;;;;;;;;5058125;28;20021;-55
2021/09/12 10:57:06;;;;;;;2.30;1.50;;;;;;;;;;5060785;28;20074;-54
2021/09/12 10:59:32;;;;;;;2.70;1.60;;;;;;;;;;5064441;28;20431;-55
2021/09/12 11:01:58;;;;;;;1.70;1.40;;;;;;;;;;5065505;28;20021;-52
2021/09/12 11:04:32;;;;;;;1.88;1.40;;;;;;;;;;5060254;28;20032;-56
2021/09/12 11:07:03;;;;;;;1.60;1.10;;;;;;;;;;5058863;28;20052;-54
2021/09/12 11:09:30;;;;;;;0.98;0.93;;;;;;;;;;5066072;28;20043;-55
2021/09/12 11:11:58;;;;;;;0.65;0.65;;;;;;;;;;5066947;28;20025;-55
2021/09/12 11:14:25;;;;;;;0.93;0.90;;;;;;;;;;5067357;28;20434;-53
2021/09/12 11:16:51;;;;;;;0.77;0.77;;;;;;;;;;5066815;28;20051;-54
2021/09/12 11:19:17;;;;;;;0.77;0.77;;;;;;;;;;5060618;28;20541;-55
2021/09/12 11:21:44;;;;;;;1.10;0.90;;;;;;;;;;5065690;28;20031;-54
2021/09/12 11:24:15;;;;;;;0.80;0.77;;;;;;;;;;5057242;28;20037;-53
2021/09/12 11:26:42;;;;;;;1.08;0.77;;;;;;;;;;5064028;28;20028;-54
2021/09/12 11:29:18;;;;;;;1.02;0.90;;;;;;;;;;5066061;28;20082;-54
2021/09/12 11:31:45;;;;;;;1.05;1.00;;;;;;;;;;5065510;28;20048;-53
2021/09/12 11:34:11;;;;;;;0.70;0.70;;;;;;;;;;5066283;28;20036;-55
2021/09/12 11:36:45;;;;;;;0.70;0.70;;;;;;;;;;5063488;28;20035;-53
2021/09/12 11:39:11;;;;;;;0.83;0.83;;;;;;;;;;5065643;28;20038;-53
2021/09/12 11:41:37;;;;;;;0.90;0.80;;;;;;;;;;5063131;28;20061;-53
2021/09/12 11:44:03;;;;;;;0.73;0.73;;;;;;;;;;5064996;28;20036;-54
2021/09/12 11:46:30;;;;;;;0.82;0.82;;;;;;;;;;5066187;28;20086;-54
2021/09/12 11:49:01;;;;;;;0.95;0.88;;;;;;;;;;5066088;28;20471;-55
2021/09/12 11:51:27;;;;;;;0.93;0.90;;;;;;;;;;5063654;28;20028;-53
2021/09/12 11:54:06;;;;;;;0.77;0.77;;;;;;;;;;5066509;28;20479;-54
2021/09/12 11:56:32;;;;;;;0.60;0.60;;;;;;;;;;5065366;28;20086;-54
2021/09/12 11:58:59;;;;;;;0.65;0.65;;;;;;;;;;5065654;28;20040;-53
2021/09/12 12:01:26;;;;;;;0.60;0.60;;;;;;;;;;5064635;28;20032;-54
2021/09/12 12:03:52;;;;;;;0.70;0.70;;;;;;;;;;5065575;28;20028;-53
2021/09/12 12:06:18;;;;;;;0.73;0.73;;;;;;;;;;5060647;28;20399;-53
2021/09/12 12:09:03;;;;;;;0.80;0.80;;;;;;;;;;5055510;28;20065;-55
2021/09/12 12:11:29;;;;;;;0.60;0.60;;;;;;;;;;5065078;28;20423;-55
2021/09/12 12:13:55;;;;;;;0.60;0.60;;;;;;;;;;5065517;28;20037;-56
2021/09/12 12:16:21;;;;;;;0.70;0.70;;;;;;;;;;5066104;28;20024;-56
2021/09/12 12:19:00;;;;;;;0.70;0.68;;;;;;;;;;5065919;28;20475;-56
2021/09/12 12:21:30;;;;;;;0.50;0.50;;;;;;;;;;5069379;28;20050;-56
2021/09/12 12:23:56;;;;;;;0.50;0.50;;;;;;;;;;5069698;28;20021;-56
2021/09/12 12:26:23;;;;;;;0.80;0.80;;;;;;;;;;5070347;28;20498;-55
2021/09/12 12:29:00;;;;;;;0.50;0.50;;;;;;;;;;5070092;28;20021;-56
2021/09/12 12:31:26;;;;;;;0.50;0.50;;;;;;;;;;5069474;28;20024;-56
2021/09/12 12:33:52;;;;;;;0.73;0.73;;;;;;;;;;5069976;28;20032;-55
2021/09/12 12:36:21;;;;;;;0.60;0.60;;;;;;;;;;5069312;28;20120;-56
2021/09/12 12:38:47;;;;;;;0.60;0.60;;;;;;;;;;5069201;28;20111;-54
2021/09/12 12:41:14;;;;;;;0.90;0.80;;;;;;;;;;5069142;28;20020;-55
2021/09/12 12:43:41;;;;;;;0.68;0.60;;;;;;;;;;5069325;28;20056;-55
2021/09/12 12:46:07;;;;;;;0.60;0.60;;;;;;;;;;5068848;28;20016;-56
2021/09/12 12:48:34;;;;;;;0.50;0.50;;;;;;;;;;5069124;28;20021;-55
2021/09/12 12:51:14;;;;;;;0.55;0.55;;;;;;;;;;5068322;28;20028;-55
2021/09/12 12:53:43;;;;;;;1.02;0.75;;;;;;;;;;5068745;28;20032;-56
2021/09/12 12:56:11;;;;;;;1.02;0.68;;;;;;;;;;5068816;28;20028;-56
2021/09/12 12:58:37;;;;;;;0.60;0.60;;;;;;;;;;5069018;28;20407;-57
2021/09/12 13:01:05;;;;;;;0.60;0.60;;;;;;;;;;5068581;28;20024;-56
2021/09/12 13:03:32;;;;;;;0.60;0.60;;;;;;;;;;5068917;28;20052;-56
2021/09/12 13:06:10;;;;;;;0.57;0.57;;;;;;;;;;5068850;28;20035;-55
2021/09/12 13:08:36;;;;;;;0.60;0.60;;;;;;;;;;5068946;28;20170;-55
2021/09/12 13:11:02;;;;;;;0.75;0.75;;;;;;;;;;5068801;28;20540;-56
2021/09/12 13:13:28;;;;;;;0.80;0.60;;;;;;;;;;5068954;28;20032;-56
2021/09/12 13:15:55;;;;;;;0.60;0.60;;;;;;;;;;5068464;28;20079;-56
2021/09/12 13:18:21;;;;;;;0.73;0.73;;;;;;;;;;5069036;28;20033;-55
2021/09/12 13:20:49;;;;;;;0.55;0.55;;;;;;;;;;5068285;28;20050;-56
2021/09/12 13:23:15;;;;;;;0.77;0.70;;;;;;;;;;5068578;28;20633;-56
2021/09/12 13:25:41;;;;;;;0.50;0.50;;;;;;;;;;5068598;28;20082;-55
2021/09/12 13:28:07;;;;;;;0.68;0.50;;;;;;;;;;5068380;28;20520;-55
2021/09/12 13:30:35;;;;;;;0.55;0.55;;;;;;;;;;5068081;28;20103;-54
2021/09/12 13:33:01;;;;;;;0.65;0.60;;;;;;;;;;5068327;28;20497;-56
2021/09/12 13:35:27;;;;;;;0.50;0.50;;;;;;;;;;5068148;28;20029;-53
2021/09/12 13:37:54;;;;;;;1.05;0.80;;;;;;;;;;5068884;28;20028;-54
2021/09/12 13:40:20;;;;;;;0.50;0.50;;;;;;;;;;5068767;28;20897;-55
2021/09/12 13:42:46;;;;;;;0.60;0.60;;;;;;;;;;5068247;28;20132;-55
2021/09/12 13:45:13;;;;;;;0.95;0.60;;;;;;;;;;5068099;28;20024;-56
2021/09/12 13:47:40;;;;;;;0.60;0.60;;;;;;;;;;5068517;28;20098;-56
2021/09/12 13:50:07;;;;;;;0.85;0.50;;;;;;;;;;5067355;28;20500;-55
2021/09/12 13:52:33;;;;;;;0.68;0.68;;;;;;;;;;5068429;28;20483;-56
2021/09/12 13:54:59;;;;;;;0.60;0.60;;;;;;;;;;5068109;28;20107;-55
2021/09/12 13:57:25;;;;;;;0.43;0.43;;;;;;;;;;5068090;28;20441;-56
2021/09/12 13:59:51;;;;;;;0.55;0.55;;;;;;;;;;5068350;28;20502;-54
2021/09/12 14:02:17;;;;;;;0.60;0.60;;;;;;;;;;5067836;28;20519;-56
2021/09/12 14:04:44;;;;;;;0.60;0.60;;;;;;;;;;5067616;28;20020;-55
2021/09/12 14:07:10;;;;;;;0.60;0.60;;;;;;;;;;5067667;28;20021;-56
2021/09/12 14:09:39;;;;;;;0.50;0.50;;;;;;;;;;5067841;28;20028;-55
2021/09/12 14:12:06;;;;;;;0.60;0.60;;;;;;;;;;5067582;28;20099;-55
2021/09/12 14:14:32;;;;;;;0.73;0.70;;;;;;;;;;5067723;28;20070;-55
2021/09/12 14:16:59;;;;;;;0.82;0.63;;;;;;;;;;5067776;28;20036;-55
2021/09/12 14:19:25;;;;;;;0.98;0.70;;;;;;;;;;5067290;28;20108;-56
2021/09/12 14:21:51;;;;;;;0.50;0.50;;;;;;;;;;5068290;28;20043;-55
2021/09/12 14:24:17;;;;;;;0.63;0.63;;;;;;;;;;5067512;28;20394;-55
2021/09/12 14:26:43;;;;;;;0.80;0.60;;;;;;;;;;5067463;28;20383;-54
2021/09/12 14:29:09;;;;;;;0.68;0.57;;;;;;;;;;5067174;28;20028;-55
2021/09/12 14:31:35;;;;;;;0.57;0.57;;;;;;;;;;5067421;28;20445;-55
2021/09/12 14:34:01;;;;;;;0.60;0.60;;;;;;;;;;5067230;28;20032;-54
2021/09/12 14:36:27;;;;;;;0.57;0.57;;;;;;;;;;5067682;28;20510;-54
2021/09/12 14:38:55;;;;;;;0.63;0.63;;;;;;;;;;5067915;28;20398;-55
2021/09/12 14:41:21;;;;;;;0.60;0.60;;;;;;;;;;5067746;28;20483;-54
2021/09/12 14:43:47;;;;;;;0.50;0.50;;;;;;;;;;5066505;28;20024;-54